sensor_id;sensor_type;location;lat;lon;timestamp;temperature;humidity
33428;DHT22;19769;48.150;16.306;2023-07-28T00:00:29;21.10;81.00
33428;DHT22;19769;48.150;16.306;2023-07-28T00:02:54;21.00;81.20
33428;DHT22;19769;48.150;16.306;2023-07-28T00:05:20;21.00;81.40
33428;DHT22;19769;48.150;16.306;2023-07-28T00:07:45;21.00;81.50
33428;DHT22;19769;48.150;16.306;2023-07-28T00:10:11;21.00;81.90
33428;DHT22;19769;48.150;16.306;2023-07-28T00:12:37;21.00;82.30
33428;DHT22;19769;48.150;16.306;2023-07-28T00:15:03;21.00;82.00
33428;DHT22;19769;48.150;16.306;2023-07-28T00:17:29;21.00;81.90
33428;DHT22;19769;48.150;16.306;2023-07-28T00:19:55;21.00;82.60
33428;DHT22;19769;48.150;16.306;2023-07-28T00:22:20;21.00;82.60
33428;DHT22;19769;48.150;16.306;2023-07-28T00:24:46;21.00;82.40
33428;DHT22;19769;48.150;16.306;2023-07-28T00:27:12;21.00;82.60
33428;DHT22;19769;48.150;16.306;2023-07-28T00:29:40;21.00;83.00
33428;DHT22;19769;48.150;16.306;2023-07-28T00:32:06;21.00;83.40
33428;DHT22;19769;48.150;16.306;2023-07-28T00:34:33;21.00;83.30
33428;DHT22;19769;48.150;16.306;2023-07-28T00:36:59;21.00;83.00
33428;DHT22;19769;48.150;16.306;2023-07-28T00:39:25;21.00;82.50
33428;DHT22;19769;48.150;16.306;2023-07-28T00:41:50;21.00;82.50
33428;DHT22;19769;48.150;16.306;2023-07-28T00:44:16;21.10;83.20
33428;DHT22;19769;48.150;16.306;2023-07-28T00:46:43;21.00;82.80
33428;DHT22;19769;48.150;16.306;2023-07-28T00:49:09;21.00;83.00
33428;DHT22;19769;48.150;16.306;2023-07-28T00:51:35;21.00;83.60
33428;DHT22;19769;48.150;16.306;2023-07-28T00:54:01;21.00;84.00
33428;DHT22;19769;48.150;16.306;2023-07-28T00:56:27;21.00;84.40
33428;DHT22;19769;48.150;16.306;2023-07-28T00:58:53;21.10;84.90
33428;DHT22;19769;48.150;16.306;2023-07-28T01:01:19;21.20;84.40
33428;DHT22;19769;48.150;16.306;2023-07-28T01:03:46;21.20;84.00
33428;DHT22;19769;48.150;16.306;2023-07-28T01:06:20;21.20;84.40
33428;DHT22;19769;48.150;16.306;2023-07-28T01:08:58;21.20;84.60
33428;DHT22;19769;48.150;16.306;2023-07-28T01:11:26;21.30;84.70
33428;DHT22;19769;48.150;16.306;2023-07-28T01:13:52;21.20;85.10
33428;DHT22;19769;48.150;16.306;2023-07-28T01:16:17;21.20;85.10
33428;DHT22;19769;48.150;16.306;2023-07-28T01:18:43;21.30;85.60
33428;DHT22;19769;48.150;16.306;2023-07-28T01:21:09;21.40;86.30
33428;DHT22;19769;48.150;16.306;2023-07-28T01:26:26;21.20;87.70
33428;DHT22;19769;48.150;16.306;2023-07-28T01:28:51;21.20;88.60
33428;DHT22;19769;48.150;16.306;2023-07-28T01:31:18;21.20;89.50
33428;DHT22;19769;48.150;16.306;2023-07-28T01:33:43;21.10;90.30
33428;DHT22;19769;48.150;16.306;2023-07-28T01:36:09;21.10;90.80
33428;DHT22;19769;48.150;16.306;2023-07-28T01:38:35;21.10;90.90
33428;DHT22;19769;48.150;16.306;2023-07-28T01:41:00;21.10;91.20
33428;DHT22;19769;48.150;16.306;2023-07-28T01:43:26;21.10;91.60
33428;DHT22;19769;48.150;16.306;2023-07-28T01:45:52;21.10;92.10
33428;DHT22;19769;48.150;16.306;2023-07-28T01:48:18;21.00;92.40
33428;DHT22;19769;48.150;16.306;2023-07-28T01:50:43;21.10;98.40
33428;DHT22;19769;48.150;16.306;2023-07-28T01:53:09;21.00;95.10
33428;DHT22;19769;48.150;16.306;2023-07-28T01:55:35;21.30;98.00
33428;DHT22;19769;48.150;16.306;2023-07-28T01:58:01;21.00;94.00
33428;DHT22;19769;48.150;16.306;2023-07-28T02:00:27;20.80;99.90
33428;DHT22;19769;48.150;16.306;2023-07-28T02:02:53;21.00;93.80
33428;DHT22;19769;48.150;16.306;2023-07-28T02:05:20;20.90;94.00
33428;DHT22;19769;48.150;16.306;2023-07-28T02:07:46;20.90;94.20
33428;DHT22;19769;48.150;16.306;2023-07-28T02:10:12;20.80;94.50
33428;DHT22;19769;48.150;16.306;2023-07-28T02:12:38;20.80;94.70
33428;DHT22;19769;48.150;16.306;2023-07-28T02:15:05;20.80;94.70
33428;DHT22;19769;48.150;16.306;2023-07-28T02:17:30;20.80;94.80
33428;DHT22;19769;48.150;16.306;2023-07-28T02:19:56;20.80;94.90
33428;DHT22;19769;48.150;16.306;2023-07-28T02:22:22;20.80;95.20
33428;DHT22;19769;48.150;16.306;2023-07-28T02:24:48;20.80;95.30
33428;DHT22;19769;48.150;16.306;2023-07-28T02:27:13;20.80;95.50
33428;DHT22;19769;48.150;16.306;2023-07-28T02:29:39;20.80;95.80
33428;DHT22;19769;48.150;16.306;2023-07-28T02:32:05;20.80;96.30
33428;DHT22;19769;48.150;16.306;2023-07-28T02:34:30;20.80;96.80
33428;DHT22;19769;48.150;16.306;2023-07-28T02:36:57;20.80;97.20
33428;DHT22;19769;48.150;16.306;2023-07-28T02:39:22;20.70;96.90
33428;DHT22;19769;48.150;16.306;2023-07-28T02:44:14;20.70;96.80
33428;DHT22;19769;48.150;16.306;2023-07-28T02:46:40;20.70;96.90
33428;DHT22;19769;48.150;16.306;2023-07-28T02:49:06;20.60;97.50
33428;DHT22;19769;48.150;16.306;2023-07-28T02:51:32;20.60;98.20
33428;DHT22;19769;48.150;16.306;2023-07-28T02:53:59;20.60;98.20
33428;DHT22;19769;48.150;16.306;2023-07-28T02:56:25;20.60;98.40
33428;DHT22;19769;48.150;16.306;2023-07-28T02:58:51;20.60;98.40
33428;DHT22;19769;48.150;16.306;2023-07-28T03:01:16;20.50;98.20
33428;DHT22;19769;48.150;16.306;2023-07-28T03:03:43;20.60;98.50
33428;DHT22;19769;48.150;16.306;2023-07-28T03:06:09;20.50;98.40
33428;DHT22;19769;48.150;16.306;2023-07-28T03:08:36;20.50;98.00
33428;DHT22;19769;48.150;16.306;2023-07-28T03:11:21;20.60;98.40
33428;DHT22;19769;48.150;16.306;2023-07-28T03:13:47;20.60;98.60
33428;DHT22;19769;48.150;16.306;2023-07-28T03:16:13;20.50;98.70
33428;DHT22;19769;48.150;16.306;2023-07-28T03:18:38;20.50;98.90
33428;DHT22;19769;48.150;16.306;2023-07-28T03:21:04;20.50;99.00
33428;DHT22;19769;48.150;16.306;2023-07-28T03:23:30;20.50;98.60
33428;DHT22;19769;48.150;16.306;2023-07-28T03:25:55;20.50;98.50
33428;DHT22;19769;48.150;16.306;2023-07-28T03:28:21;20.50;98.40
33428;DHT22;19769;48.150;16.306;2023-07-28T03:30:47;20.50;98.30
33428;DHT22;19769;48.150;16.306;2023-07-28T03:33:12;20.50;98.40
33428;DHT22;19769;48.150;16.306;2023-07-28T03:35:38;20.40;98.50
33428;DHT22;19769;48.150;16.306;2023-07-28T03:38:07;20.40;98.40
33428;DHT22;19769;48.150;16.306;2023-07-28T03:40:33;20.40;98.50
33428;DHT22;19769;48.150;16.306;2023-07-28T03:42:59;20.40;98.80
33428;DHT22;19769;48.150;16.306;2023-07-28T03:45:25;20.40;98.90
33428;DHT22;19769;48.150;16.306;2023-07-28T03:47:51;20.40;98.60
33428;DHT22;19769;48.150;16.306;2023-07-28T03:50:16;20.40;98.50
33428;DHT22;19769;48.150;16.306;2023-07-28T03:52:44;20.40;98.70
33428;DHT22;19769;48.150;16.306;2023-07-28T03:55:10;20.40;98.80
33428;DHT22;19769;48.150;16.306;2023-07-28T03:57:35;20.50;99.10
33428;DHT22;19769;48.150;16.306;2023-07-28T04:00:01;20.40;99.40
33428;DHT22;19769;48.150;16.306;2023-07-28T04:02:27;20.50;99.00
33428;DHT22;19769;48.150;16.306;2023-07-28T04:04:53;20.40;98.90
33428;DHT22;19769;48.150;16.306;2023-07-28T04:07:19;20.40;98.60
33428;DHT22;19769;48.150;16.306;2023-07-28T04:09:45;20.40;98.20
33428;DHT22;19769;48.150;16.306;2023-07-28T04:12:10;20.40;97.80
33428;DHT22;19769;48.150;16.306;2023-07-28T04:14:36;20.50;97.20
33428;DHT22;19769;48.150;16.306;2023-07-28T04:17:02;20.50;96.90
33428;DHT22;19769;48.150;16.306;2023-07-28T04:19:27;20.50;96.90
33428;DHT22;19769;48.150;16.306;2023-07-28T04:21:54;20.50;97.00
33428;DHT22;19769;48.150;16.306;2023-07-28T04:24:20;20.60;96.80
33428;DHT22;19769;48.150;16.306;2023-07-28T04:26:47;20.60;96.30
33428;DHT22;19769;48.150;16.306;2023-07-28T04:29:17;20.70;96.10
33428;DHT22;19769;48.150;16.306;2023-07-28T04:31:43;20.70;95.90
33428;DHT22;19769;48.150;16.306;2023-07-28T04:34:12;20.70;95.50
33428;DHT22;19769;48.150;16.306;2023-07-28T04:37:04;20.80;95.30
33428;DHT22;19769;48.150;16.306;2023-07-28T04:39:42;20.80;95.10
33428;DHT22;19769;48.150;16.306;2023-07-28T04:42:09;20.80;95.00
33428;DHT22;19769;48.150;16.306;2023-07-28T04:44:39;20.90;94.80
33428;DHT22;19769;48.150;16.306;2023-07-28T04:47:07;21.00;94.70
33428;DHT22;19769;48.150;16.306;2023-07-28T04:49:33;21.00;95.00
33428;DHT22;19769;48.150;16.306;2023-07-28T04:52:08;21.10;95.50
33428;DHT22;19769;48.150;16.306;2023-07-28T04:54:52;21.10;96.20
33428;DHT22;19769;48.150;16.306;2023-07-28T04:57:18;21.10;96.40
33428;DHT22;19769;48.150;16.306;2023-07-28T04:59:44;21.10;96.40
33428;DHT22;19769;48.150;16.306;2023-07-28T05:02:10;21.20;96.50
33428;DHT22;19769;48.150;16.306;2023-07-28T05:04:36;21.20;96.80
33428;DHT22;19769;48.150;16.306;2023-07-28T05:07:03;21.20;97.00
33428;DHT22;19769;48.150;16.306;2023-07-28T05:09:29;21.20;95.90
33428;DHT22;19769;48.150;16.306;2023-07-28T05:11:55;21.30;95.10
33428;DHT22;19769;48.150;16.306;2023-07-28T05:14:22;21.30;94.90
33428;DHT22;19769;48.150;16.306;2023-07-28T05:16:47;21.40;94.50
33428;DHT22;19769;48.150;16.306;2023-07-28T05:19:19;21.40;94.30
33428;DHT22;19769;48.150;16.306;2023-07-28T05:21:50;21.40;94.00
33428;DHT22;19769;48.150;16.306;2023-07-28T05:24:19;21.50;93.90
33428;DHT22;19769;48.150;16.306;2023-07-28T05:26:45;21.50;93.10
33428;DHT22;19769;48.150;16.306;2023-07-28T05:29:11;21.60;92.90
33428;DHT22;19769;48.150;16.306;2023-07-28T05:31:37;21.60;93.00
33428;DHT22;19769;48.150;16.306;2023-07-28T05:34:09;21.60;92.90
33428;DHT22;19769;48.150;16.306;2023-07-28T05:36:34;21.60;92.80
33428;DHT22;19769;48.150;16.306;2023-07-28T05:39:01;21.60;92.80
33428;DHT22;19769;48.150;16.306;2023-07-28T05:41:38;21.60;92.60
33428;DHT22;19769;48.150;16.306;2023-07-28T05:44:06;21.70;92.30
33428;DHT22;19769;48.150;16.306;2023-07-28T05:46:32;21.80;92.00
33428;DHT22;19769;48.150;16.306;2023-07-28T05:48:58;21.80;91.80
33428;DHT22;19769;48.150;16.306;2023-07-28T05:51:23;21.80;91.70
33428;DHT22;19769;48.150;16.306;2023-07-28T05:53:49;21.90;91.60
33428;DHT22;19769;48.150;16.306;2023-07-28T05:56:17;21.90;92.00
33428;DHT22;19769;48.150;16.306;2023-07-28T05:58:44;22.00;92.90
33428;DHT22;19769;48.150;16.306;2023-07-28T06:01:10;22.10;92.90
33428;DHT22;19769;48.150;16.306;2023-07-28T06:03:59;22.20;91.70
33428;DHT22;19769;48.150;16.306;2023-07-28T06:06:27;22.30;91.90
33428;DHT22;19769;48.150;16.306;2023-07-28T06:08:53;22.40;91.40
33428;DHT22;19769;48.150;16.306;2023-07-28T06:11:19;22.50;91.70
33428;DHT22;19769;48.150;16.306;2023-07-28T06:13:45;22.50;91.70
33428;DHT22;19769;48.150;16.306;2023-07-28T06:16:12;22.50;91.60
33428;DHT22;19769;48.150;16.306;2023-07-28T06:18:38;22.60;91.00
33428;DHT22;19769;48.150;16.306;2023-07-28T06:21:12;22.60;91.10
33428;DHT22;19769;48.150;16.306;2023-07-28T06:23:37;22.70;90.50
33428;DHT22;19769;48.150;16.306;2023-07-28T06:26:03;22.70;90.30
33428;DHT22;19769;48.150;16.306;2023-07-28T06:28:29;22.80;89.20
33428;DHT22;19769;48.150;16.306;2023-07-28T06:30:55;22.80;88.70
33428;DHT22;19769;48.150;16.306;2023-07-28T06:33:23;22.80;87.70
33428;DHT22;19769;48.150;16.306;2023-07-28T06:35:49;22.80;88.00
33428;DHT22;19769;48.150;16.306;2023-07-28T06:38:14;22.70;88.10
33428;DHT22;19769;48.150;16.306;2023-07-28T06:40:40;22.80;87.00
33428;DHT22;19769;48.150;16.306;2023-07-28T06:43:06;22.90;86.90
33428;DHT22;19769;48.150;16.306;2023-07-28T06:45:33;22.90;86.00
33428;DHT22;19769;48.150;16.306;2023-07-28T06:48:00;23.10;85.00
33428;DHT22;19769;48.150;16.306;2023-07-28T06:50:25;23.20;85.50
33428;DHT22;19769;48.150;16.306;2023-07-28T06:52:51;23.40;85.90
33428;DHT22;19769;48.150;16.306;2023-07-28T06:55:21;23.60;85.30
33428;DHT22;19769;48.150;16.306;2023-07-28T06:57:47;23.70;85.00
33428;DHT22;19769;48.150;16.306;2023-07-28T07:00:13;23.90;84.10
33428;DHT22;19769;48.150;16.306;2023-07-28T07:02:40;24.00;82.10
33428;DHT22;19769;48.150;16.306;2023-07-28T07:05:05;24.20;81.50
33428;DHT22;19769;48.150;16.306;2023-07-28T07:07:32;24.30;81.20
33428;DHT22;19769;48.150;16.306;2023-07-28T07:09:57;24.50;80.70
33428;DHT22;19769;48.150;16.306;2023-07-28T07:12:23;24.50;80.30
33428;DHT22;19769;48.150;16.306;2023-07-28T07:14:49;24.70;78.80
33428;DHT22;19769;48.150;16.306;2023-07-28T07:17:15;24.70;78.70
33428;DHT22;19769;48.150;16.306;2023-07-28T07:19:40;24.80;78.70
33428;DHT22;19769;48.150;16.306;2023-07-28T07:22:06;24.70;77.70
33428;DHT22;19769;48.150;16.306;2023-07-28T07:24:32;24.70;78.30
33428;DHT22;19769;48.150;16.306;2023-07-28T07:26:58;24.70;77.50
33428;DHT22;19769;48.150;16.306;2023-07-28T07:29:23;24.70;77.10
33428;DHT22;19769;48.150;16.306;2023-07-28T07:31:49;24.70;77.20
33428;DHT22;19769;48.150;16.306;2023-07-28T07:34:20;24.80;78.60
33428;DHT22;19769;48.150;16.306;2023-07-28T07:36:46;24.90;76.50
33428;DHT22;19769;48.150;16.306;2023-07-28T07:39:11;25.20;74.70
33428;DHT22;19769;48.150;16.306;2023-07-28T07:41:37;25.40;73.70
33428;DHT22;19769;48.150;16.306;2023-07-28T07:44:03;25.60;73.20
33428;DHT22;19769;48.150;16.306;2023-07-28T07:46:28;25.70;72.60
33428;DHT22;19769;48.150;16.306;2023-07-28T07:48:54;25.90;71.10
33428;DHT22;19769;48.150;16.306;2023-07-28T07:51:20;26.00;72.40
33428;DHT22;19769;48.150;16.306;2023-07-28T07:53:45;26.20;70.40
33428;DHT22;19769;48.150;16.306;2023-07-28T07:56:11;26.30;70.90
33428;DHT22;19769;48.150;16.306;2023-07-28T07:58:37;26.50;71.20
33428;DHT22;19769;48.150;16.306;2023-07-28T08:01:03;26.60;71.00
33428;DHT22;19769;48.150;16.306;2023-07-28T08:03:29;26.70;70.60
33428;DHT22;19769;48.150;16.306;2023-07-28T08:05:55;26.80;70.00
33428;DHT22;19769;48.150;16.306;2023-07-28T08:08:21;26.90;70.80
33428;DHT22;19769;48.150;16.306;2023-07-28T08:10:47;26.90;69.90
33428;DHT22;19769;48.150;16.306;2023-07-28T08:13:13;27.00;71.10
33428;DHT22;19769;48.150;16.306;2023-07-28T08:15:38;27.00;70.10
33428;DHT22;19769;48.150;16.306;2023-07-28T08:18:04;27.20;70.40
33428;DHT22;19769;48.150;16.306;2023-07-28T08:20:29;27.20;71.20
33428;DHT22;19769;48.150;16.306;2023-07-28T08:22:55;27.40;70.90
33428;DHT22;19769;48.150;16.306;2023-07-28T08:25:21;27.60;70.60
33428;DHT22;19769;48.150;16.306;2023-07-28T08:27:49;27.60;70.10
33428;DHT22;19769;48.150;16.306;2023-07-28T08:30:14;27.70;70.10
33428;DHT22;19769;48.150;16.306;2023-07-28T08:32:41;27.80;69.60
33428;DHT22;19769;48.150;16.306;2023-07-28T08:35:07;27.80;69.50
33428;DHT22;19769;48.150;16.306;2023-07-28T08:37:33;27.90;70.20
33428;DHT22;19769;48.150;16.306;2023-07-28T08:39:59;28.00;69.40
33428;DHT22;19769;48.150;16.306;2023-07-28T08:42:24;27.90;69.70
33428;DHT22;19769;48.150;16.306;2023-07-28T08:44:50;28.10;69.50
33428;DHT22;19769;48.150;16.306;2023-07-28T08:47:18;28.20;69.10
33428;DHT22;19769;48.150;16.306;2023-07-28T08:49:44;28.30;68.20
33428;DHT22;19769;48.150;16.306;2023-07-28T08:52:10;28.30;68.50
33428;DHT22;19769;48.150;16.306;2023-07-28T08:54:36;28.40;67.50
33428;DHT22;19769;48.150;16.306;2023-07-28T08:57:01;28.40;68.40
33428;DHT22;19769;48.150;16.306;2023-07-28T08:59:28;28.50;67.60
33428;DHT22;19769;48.150;16.306;2023-07-28T09:01:55;28.40;66.60
33428;DHT22;19769;48.150;16.306;2023-07-28T09:04:21;28.50;67.20
33428;DHT22;19769;48.150;16.306;2023-07-28T09:06:47;28.60;66.80
33428;DHT22;19769;48.150;16.306;2023-07-28T09:09:13;28.70;66.50
33428;DHT22;19769;48.150;16.306;2023-07-28T09:11:52;28.90;66.30
33428;DHT22;19769;48.150;16.306;2023-07-28T09:14:19;29.00;65.80
33428;DHT22;19769;48.150;16.306;2023-07-28T09:16:46;28.90;65.30
33428;DHT22;19769;48.150;16.306;2023-07-28T09:19:12;28.90;65.70
33428;DHT22;19769;48.150;16.306;2023-07-28T09:21:38;29.00;64.70
33428;DHT22;19769;48.150;16.306;2023-07-28T09:24:04;29.20;64.20
33428;DHT22;19769;48.150;16.306;2023-07-28T09:29:13;29.20;65.00
33428;DHT22;19769;48.150;16.306;2023-07-28T09:31:39;29.30;64.30
33428;DHT22;19769;48.150;16.306;2023-07-28T09:34:08;29.50;62.60
33428;DHT22;19769;48.150;16.306;2023-07-28T09:36:34;29.50;62.20
33428;DHT22;19769;48.150;16.306;2023-07-28T09:39:00;29.50;62.30
33428;DHT22;19769;48.150;16.306;2023-07-28T09:41:27;29.40;63.10
33428;DHT22;19769;48.150;16.306;2023-07-28T09:43:54;29.50;62.40
33428;DHT22;19769;48.150;16.306;2023-07-28T09:46:20;29.40;62.80
33428;DHT22;19769;48.150;16.306;2023-07-28T09:48:46;29.50;62.30
33428;DHT22;19769;48.150;16.306;2023-07-28T09:51:19;29.70;63.10
33428;DHT22;19769;48.150;16.306;2023-07-28T09:53:48;29.90;61.70
33428;DHT22;19769;48.150;16.306;2023-07-28T09:56:14;29.90;62.60
33428;DHT22;19769;48.150;16.306;2023-07-28T09:58:41;29.90;61.80
33428;DHT22;19769;48.150;16.306;2023-07-28T10:01:09;30.20;61.20
33428;DHT22;19769;48.150;16.306;2023-07-28T10:03:35;30.40;60.10
33428;DHT22;19769;48.150;16.306;2023-07-28T10:06:01;30.10;60.10
33428;DHT22;19769;48.150;16.306;2023-07-28T10:08:27;29.80;60.70
33428;DHT22;19769;48.150;16.306;2023-07-28T10:10:54;29.50;61.40
33428;DHT22;19769;48.150;16.306;2023-07-28T10:13:20;29.10;62.60
33428;DHT22;19769;48.150;16.306;2023-07-28T10:15:46;28.90;63.10
33428;DHT22;19769;48.150;16.306;2023-07-28T10:18:13;28.80;62.50
33428;DHT22;19769;48.150;16.306;2023-07-28T10:20:39;28.70;63.40
33428;DHT22;19769;48.150;16.306;2023-07-28T10:23:12;28.70;63.70
33428;DHT22;19769;48.150;16.306;2023-07-28T10:25:38;28.80;63.50
33428;DHT22;19769;48.150;16.306;2023-07-28T10:28:06;28.70;63.80
33428;DHT22;19769;48.150;16.306;2023-07-28T10:30:34;28.80;64.50
33428;DHT22;19769;48.150;16.306;2023-07-28T10:33:01;28.90;65.00
33428;DHT22;19769;48.150;16.306;2023-07-28T10:35:28;29.50;63.90
33428;DHT22;19769;48.150;16.306;2023-07-28T10:37:56;29.90;63.50
33428;DHT22;19769;48.150;16.306;2023-07-28T10:42:48;31.00;60.30
33428;DHT22;19769;48.150;16.306;2023-07-28T10:45:14;31.50;59.40
33428;DHT22;19769;48.150;16.306;2023-07-28T10:47:40;31.50;58.80
33428;DHT22;19769;48.150;16.306;2023-07-28T10:50:09;31.00;59.20
33428;DHT22;19769;48.150;16.306;2023-07-28T10:52:42;30.80;59.10
33428;DHT22;19769;48.150;16.306;2023-07-28T10:55:18;30.70;60.20
33428;DHT22;19769;48.150;16.306;2023-07-28T10:57:44;30.90;60.20
33428;DHT22;19769;48.150;16.306;2023-07-28T11:00:11;30.90;60.60
33428;DHT22;19769;48.150;16.306;2023-07-28T11:02:51;31.10;60.50
33428;DHT22;19769;48.150;16.306;2023-07-28T11:05:21;31.10;60.10
33428;DHT22;19769;48.150;16.306;2023-07-28T11:07:51;31.30;61.30
33428;DHT22;19769;48.150;16.306;2023-07-28T11:10:18;31.20;60.10
33428;DHT22;19769;48.150;16.306;2023-07-28T11:12:44;31.00;60.20
33428;DHT22;19769;48.150;16.306;2023-07-28T11:15:10;30.80;60.00
33428;DHT22;19769;48.150;16.306;2023-07-28T11:17:37;30.50;60.70
33428;DHT22;19769;48.150;16.306;2023-07-28T11:20:03;30.40;61.60
33428;DHT22;19769;48.150;16.306;2023-07-28T11:22:29;30.10;61.90
33428;DHT22;19769;48.150;16.306;2023-07-28T11:24:55;30.00;61.90
33428;DHT22;19769;48.150;16.306;2023-07-28T11:27:20;30.10;61.70
33428;DHT22;19769;48.150;16.306;2023-07-28T11:29:47;30.10;61.20
33428;DHT22;19769;48.150;16.306;2023-07-28T11:32:14;30.00;62.30
33428;DHT22;19769;48.150;16.306;2023-07-28T11:34:41;30.20;63.00
33428;DHT22;19769;48.150;16.306;2023-07-28T11:37:09;30.50;61.20
33428;DHT22;19769;48.150;16.306;2023-07-28T11:39:34;30.50;61.30
33428;DHT22;19769;48.150;16.306;2023-07-28T11:42:01;30.50;61.80
33428;DHT22;19769;48.150;16.306;2023-07-28T11:44:27;30.50;61.20
33428;DHT22;19769;48.150;16.306;2023-07-28T11:46:53;30.50;61.20
33428;DHT22;19769;48.150;16.306;2023-07-28T11:49:20;30.50;61.80
33428;DHT22;19769;48.150;16.306;2023-07-28T11:51:50;30.50;60.60
33428;DHT22;19769;48.150;16.306;2023-07-28T11:54:18;30.60;61.10
33428;DHT22;19769;48.150;16.306;2023-07-28T11:56:48;30.60;61.10
33428;DHT22;19769;48.150;16.306;2023-07-28T11:59:14;30.80;59.70
33428;DHT22;19769;48.150;16.306;2023-07-28T12:04:23;30.70;59.90
33428;DHT22;19769;48.150;16.306;2023-07-28T12:09:32;30.70;60.10
33428;DHT22;19769;48.150;16.306;2023-07-28T12:11:58;30.80;59.30
33428;DHT22;19769;48.150;16.306;2023-07-28T12:14:34;30.70;61.30
33428;DHT22;19769;48.150;16.306;2023-07-28T12:17:00;30.70;61.10
33428;DHT22;19769;48.150;16.306;2023-07-28T12:19:26;30.80;60.60
33428;DHT22;19769;48.150;16.306;2023-07-28T12:21:52;31.00;59.90
33428;DHT22;19769;48.150;16.306;2023-07-28T12:24:18;31.10;59.60
33428;DHT22;19769;48.150;16.306;2023-07-28T12:26:45;31.00;59.30
33428;DHT22;19769;48.150;16.306;2023-07-28T12:29:10;30.90;61.20
33428;DHT22;19769;48.150;16.306;2023-07-28T12:31:37;30.80;61.50
33428;DHT22;19769;48.150;16.306;2023-07-28T12:34:02;30.50;61.70
33428;DHT22;19769;48.150;16.306;2023-07-28T12:36:28;30.60;61.70
33428;DHT22;19769;48.150;16.306;2023-07-28T12:38:54;30.70;61.60
33428;DHT22;19769;48.150;16.306;2023-07-28T12:41:19;30.80;61.80
33428;DHT22;19769;48.150;16.306;2023-07-28T12:43:46;30.90;62.20
33428;DHT22;19769;48.150;16.306;2023-07-28T12:46:11;31.40;59.40
33428;DHT22;19769;48.150;16.306;2023-07-28T12:48:37;31.50;59.00
33428;DHT22;19769;48.150;16.306;2023-07-28T12:51:03;31.40;60.40
33428;DHT22;19769;48.150;16.306;2023-07-28T12:53:29;31.10;60.00
33428;DHT22;19769;48.150;16.306;2023-07-28T12:55:54;30.80;60.70
33428;DHT22;19769;48.150;16.306;2023-07-28T12:58:20;30.40;62.10
33428;DHT22;19769;48.150;16.306;2023-07-28T13:00:46;30.10;61.40
33428;DHT22;19769;48.150;16.306;2023-07-28T13:03:12;29.70;62.80
33428;DHT22;19769;48.150;16.306;2023-07-28T13:05:37;29.30;63.90
33428;DHT22;19769;48.150;16.306;2023-07-28T13:08:03;28.90;63.50
33428;DHT22;19769;48.150;16.306;2023-07-28T13:10:29;28.50;65.60
33428;DHT22;19769;48.150;16.306;2023-07-28T13:12:54;28.20;66.70
33428;DHT22;19769;48.150;16.306;2023-07-28T13:15:20;28.10;67.30
33428;DHT22;19769;48.150;16.306;2023-07-28T13:17:46;28.00;68.10
33428;DHT22;19769;48.150;16.306;2023-07-28T13:20:11;27.70;69.30
33428;DHT22;19769;48.150;16.306;2023-07-28T13:22:37;27.60;70.20
33428;DHT22;19769;48.150;16.306;2023-07-28T13:25:03;27.60;69.50
33428;DHT22;19769;48.150;16.306;2023-07-28T13:27:28;27.40;70.90
33428;DHT22;19769;48.150;16.306;2023-07-28T13:29:54;27.40;69.80
33428;DHT22;19769;48.150;16.306;2023-07-28T13:32:24;27.30;68.80
33428;DHT22;19769;48.150;16.306;2023-07-28T13:34:50;27.20;70.50
33428;DHT22;19769;48.150;16.306;2023-07-28T13:37:15;27.10;69.90
33428;DHT22;19769;48.150;16.306;2023-07-28T13:39:41;27.20;70.50
33428;DHT22;19769;48.150;16.306;2023-07-28T13:42:07;27.10;70.80
33428;DHT22;19769;48.150;16.306;2023-07-28T13:44:33;27.20;70.50
33428;DHT22;19769;48.150;16.306;2023-07-28T13:46:59;27.20;70.90
33428;DHT22;19769;48.150;16.306;2023-07-28T13:49:25;27.20;69.30
33428;DHT22;19769;48.150;16.306;2023-07-28T13:51:50;27.20;69.50
33428;DHT22;19769;48.150;16.306;2023-07-28T13:54:16;27.20;69.30
33428;DHT22;19769;48.150;16.306;2023-07-28T13:56:42;27.30;69.50
33428;DHT22;19769;48.150;16.306;2023-07-28T13:59:07;27.40;68.90
33428;DHT22;19769;48.150;16.306;2023-07-28T14:01:33;27.50;69.20
33428;DHT22;19769;48.150;16.306;2023-07-28T14:03:59;27.50;69.40
33428;DHT22;19769;48.150;16.306;2023-07-28T14:06:24;27.60;69.70
33428;DHT22;19769;48.150;16.306;2023-07-28T14:08:50;27.60;69.10
33428;DHT22;19769;48.150;16.306;2023-07-28T14:11:16;27.70;69.10
33428;DHT22;19769;48.150;16.306;2023-07-28T14:13:41;27.70;68.60
33428;DHT22;19769;48.150;16.306;2023-07-28T14:16:07;27.90;68.00
33428;DHT22;19769;48.150;16.306;2023-07-28T14:18:35;27.90;69.30
33428;DHT22;19769;48.150;16.306;2023-07-28T14:21:00;27.90;70.00
33428;DHT22;19769;48.150;16.306;2023-07-28T14:23:26;27.80;69.80
33428;DHT22;19769;48.150;16.306;2023-07-28T14:25:52;27.80;70.40
33428;DHT22;19769;48.150;16.306;2023-07-28T14:28:18;27.90;69.80
33428;DHT22;19769;48.150;16.306;2023-07-28T14:30:44;28.10;69.60
33428;DHT22;19769;48.150;16.306;2023-07-28T14:33:13;28.20;69.90
33428;DHT22;19769;48.150;16.306;2023-07-28T14:35:39;28.40;70.30
33428;DHT22;19769;48.150;16.306;2023-07-28T14:38:05;28.70;69.70
33428;DHT22;19769;48.150;16.306;2023-07-28T14:40:31;28.90;69.60
33428;DHT22;19769;48.150;16.306;2023-07-28T14:42:56;29.00;70.00
33428;DHT22;19769;48.150;16.306;2023-07-28T14:45:22;29.00;69.80
33428;DHT22;19769;48.150;16.306;2023-07-28T14:47:48;29.00;69.00
33428;DHT22;19769;48.150;16.306;2023-07-28T14:50:13;29.00;68.70
33428;DHT22;19769;48.150;16.306;2023-07-28T14:52:39;29.00;68.70
33428;DHT22;19769;48.150;16.306;2023-07-28T14:55:05;29.10;68.70
33428;DHT22;19769;48.150;16.306;2023-07-28T14:57:31;28.80;69.90
33428;DHT22;19769;48.150;16.306;2023-07-28T14:59:56;28.80;69.60
33428;DHT22;19769;48.150;16.306;2023-07-28T15:02:22;29.00;69.50
33428;DHT22;19769;48.150;16.306;2023-07-28T15:04:47;28.90;69.10
33428;DHT22;19769;48.150;16.306;2023-07-28T15:07:13;29.00;68.90
33428;DHT22;19769;48.150;16.306;2023-07-28T15:09:40;28.90;69.60
33428;DHT22;19769;48.150;16.306;2023-07-28T15:12:06;28.70;69.60
33428;DHT22;19769;48.150;16.306;2023-07-28T15:14:31;28.70;69.90
33428;DHT22;19769;48.150;16.306;2023-07-28T15:16:57;28.40;70.90
33428;DHT22;19769;48.150;16.306;2023-07-28T15:19:23;28.20;71.50
33428;DHT22;19769;48.150;16.306;2023-07-28T15:21:49;28.20;71.30
33428;DHT22;19769;48.150;16.306;2023-07-28T15:24:14;27.90;71.90
33428;DHT22;19769;48.150;16.306;2023-07-28T15:26:40;27.80;72.70